Time;durP1;ratioP1;P1;durP2;ratioP2;P2;SDS_P1;SDS_P2;PMS_P1;PMS_P2;Temp;Humidity;BMP_temperature;BMP_pressure;BME280_temperature;BME280_humidity;BME280_pressure;Samples;Min_cycle;Max_cycle;Signal;HPM_P1;HPM_P2
2021/08/11 00:00:12;;;;;;;6.70;3.00;;;17.30;84.70;;;;;;6250357;23;20031;-80
2021/08/11 00:02:40;;;;;;;6.82;2.85;;;17.30;85.00;;;;;;6254830;23;20035;-81
2021/08/11 00:05:08;;;;;;;5.28;2.83;;;17.20;85.30;;;;;;6247587;22;20015;-80
2021/08/11 00:07:37;;;;;;;10.13;2.40;;;17.10;85.40;;;;;;6251369;23;20315;-80
2021/08/11 00:10:05;;;;;;;6.65;2.58;;;17.10;85.20;;;;;;6251727;22;20074;-80
2021/08/11 00:12:39;;;;;;;5.22;2.47;;;17.10;85.40;;;;;;6249517;23;20024;-79
2021/08/11 00:15:08;;;;;;;7.57;2.45;;;16.90;85.80;;;;;;6252158;22;20016;-81
2021/08/11 00:17:35;;;;;;;5.97;1.95;;;16.90;85.90;;;;;;6253817;23;20051;-80
2021/08/11 00:20:04;;;;;;;5.75;2.25;;;16.90;85.70;;;;;;6255987;22;20062;-80
2021/08/11 00:22:32;;;;;;;4.20;2.38;;;16.80;86.20;;;;;;6251847;23;20035;-80
2021/08/11 00:25:01;;;;;;;5.55;2.60;;;16.80;86.50;;;;;;6251563;23;20020;-81
2021/08/11 00:27:28;;;;;;;5.72;3.03;;;16.60;87.00;;;;;;6249943;23;20023;-80
2021/08/11 00:29:55;;;;;;;4.88;2.22;;;16.60;86.90;;;;;;6252153;22;20024;-80
2021/08/11 00:32:23;;;;;;;9.15;3.13;;;16.60;87.00;;;;;;6277693;22;20020;-80
2021/08/11 00:34:50;;;;;;;5.25;2.38;;;16.60;86.70;;;;;;6250809;22;20020;-80
2021/08/11 00:37:18;;;;;;;5.05;2.55;;;16.60;86.80;;;;;;6253291;23;20016;-81
2021/08/11 00:39:48;;;;;;;6.50;2.83;;;16.50;87.20;;;;;;6252720;23;20082;-81
2021/08/11 00:42:17;;;;;;;10.48;3.20;;;16.40;87.00;;;;;;6254066;22;20633;-79
2021/08/11 00:44:44;;;;;;;7.50;2.60;;;16.40;87.00;;;;;;6252904;22;20028;-80
2021/08/11 00:47:12;;;;;;;6.80;2.30;;;16.40;87.30;;;;;;6253053;23;20020;-80
2021/08/11 00:49:43;;;;;;;4.93;2.13;;;16.40;87.40;;;;;;6277951;22;20028;-79
2021/08/11 00:52:11;;;;;;;7.95;2.35;;;16.30;87.30;;;;;;6252585;23;20020;-79
2021/08/11 00:54:40;;;;;;;6.80;2.45;;;16.20;87.10;;;;;;6278235;22;20032;-79
2021/08/11 00:57:10;;;;;;;;;;;16.20;87.10;;;;;;6253396;23;20315;-80
2021/08/11 00:59:40;;;;;;;5.60;2.00;;;16.10;87.60;;;;;;6248859;23;19955;-79
2021/08/11 01:02:15;;;;;;;5.43;2.03;;;16.00;87.90;;;;;;6247543;23;20019;-79
2021/08/11 01:04:44;;;;;;;5.35;1.98;;;16.00;88.10;;;;;;6253374;23;20020;-80
2021/08/11 01:07:12;;;;;;;7.07;2.33;;;15.90;88.10;;;;;;6252045;23;20082;-78
2021/08/11 01:09:41;;;;;;;6.95;2.40;;;15.90;88.20;;;;;;6252893;23;20453;-79
2021/08/11 01:12:09;;;;;;;7.20;2.30;;;15.90;88.50;;;;;;6252953;23;20079;-79
2021/08/11 01:14:36;;;;;;;6.82;2.22;;;15.80;88.50;;;;;;6253196;23;20020;-78
2021/08/11 01:17:11;;;;;;;5.35;2.45;;;15.80;88.40;;;;;;6252360;23;20032;-79
2021/08/11 01:19:38;;;;;;;5.72;2.25;;;15.80;88.20;;;;;;6236409;22;20372;-78
2021/08/11 01:22:24;;;;;;;4.80;2.25;;;15.80;88.40;;;;;;1256509;22;10021732;-78
2021/08/11 01:24:58;;;;;;;5.85;2.42;;;15.70;88.50;;;;;;5822803;23;10000754;-78
2021/08/11 01:28:01;;;;;;;9.07;2.10;;;15.80;88.30;;;;;;6252646;23;20290;-79
2021/08/11 01:30:35;;;;;;;6.93;2.58;;;15.70;88.50;;;;;;6253251;23;20034;-80
2021/08/11 01:33:24;;;;;;;4.20;1.73;;;15.60;88.50;;;;;;6253830;22;20365;-79
2021/08/11 01:35:59;;;;;;;5.30;1.73;;;15.50;88.60;;;;;;6234875;23;20079;-79
2021/08/11 01:38:30;;;;;;;5.43;2.30;;;15.60;88.60;;;;;;6253169;23;20050;-79
2021/08/11 01:41:03;;;;;;;6.38;2.13;;;15.40;88.60;;;;;;6250703;23;20242;-79
2021/08/11 01:43:37;;;;;;;5.88;2.05;;;15.40;88.70;;;;;;6252210;22;20247;-79
2021/08/11 01:46:07;;;;;;;5.18;2.22;;;15.40;88.70;;;;;;6277325;22;20016;-80
2021/08/11 01:48:39;;;;;;;5.35;2.20;;;15.30;88.70;;;;;;6251549;23;20074;-79
2021/08/11 01:51:08;;;;;;;7.07;2.83;;;15.30;89.10;;;;;;6251432;23;20026;-79
2021/08/11 01:53:35;;;;;;;5.45;2.10;;;15.20;89.40;;;;;;6252358;23;20333;-79
2021/08/11 01:56:10;;;;;;;6.68;2.17;;;15.20;89.30;;;;;;6253537;23;20020;-82
2021/08/11 01:58:46;;;;;;;7.97;2.88;;;15.20;89.20;;;;;;6252248;23;20032;-82
2021/08/11 02:01:16;;;;;;;4.80;2.15;;;15.20;89.30;;;;;;6245855;23;20074;-82
2021/08/11 02:03:48;;;;;;;6.75;2.28;;;15.10;89.40;;;;;;6278735;22;20020;-82
2021/08/11 02:06:16;;;;;;;6.43;2.23;;;15.10;89.50;;;;;;6251645;23;20015;-82
2021/08/11 02:08:49;;;;;;;4.95;1.88;;;15.10;89.50;;;;;;6252070;23;20423;-81
2021/08/11 02:11:19;;;;;;;5.03;2.22;;;15.10;89.30;;;;;;6276735;22;20051;-81
2021/08/11 02:13:46;;;;;;;7.35;2.15;;;15.10;89.20;;;;;;6251954;23;20043;-81
2021/08/11 02:16:15;;;;;;;5.47;2.33;;;15.10;89.40;;;;;;6251796;23;20016;-81
2021/08/11 02:18:43;;;;;;;7.32;2.38;;;15.00;89.40;;;;;;6252116;23;20061;-81
2021/08/11 02:21:12;;;;;;;5.95;2.83;;;15.00;89.60;;;;;;6252299;23;20027;-81
2021/08/11 02:23:41;;;;;;;5.68;2.63;;;15.00;89.80;;;;;;6252239;23;20031;-83
2021/08/11 02:26:18;;;;;;;6.32;2.22;;;15.00;89.60;;;;;;6251595;23;20349;-81
2021/08/11 02:29:06;;;;;;;3.92;2.00;;;14.90;89.60;;;;;;6253189;23;20200;-82
2021/08/11 02:31:43;;;;;;;4.25;1.63;;;14.90;89.60;;;;;;6251899;23;20020;-81
2021/08/11 02:34:18;;;;;;;6.28;2.25;;;14.80;90.00;;;;;;6278598;22;20020;-80
2021/08/11 02:36:56;;;;;;;5.38;2.20;;;14.70;90.10;;;;;;6252714;23;20031;-80
2021/08/11 02:39:30;;;;;;;4.60;1.65;;;14.60;90.20;;;;;;6278524;22;20027;-82
2021/08/11 02:42:04;;;;;;;6.60;2.42;;;14.60;90.30;;;;;;6253603;23;20075;-81
2021/08/11 02:44:38;;;;;;;4.78;2.00;;;14.60;90.20;;;;;;6254208;23;20066;-81
2021/08/11 02:47:06;;;;;;;8.15;2.83;;;14.60;90.10;;;;;;6255210;23;20050;-81
2021/08/11 02:49:38;;;;;;;4.03;1.80;;;14.60;90.10;;;;;;6254500;23;20012;-81
2021/08/11 02:52:13;;;;;;;5.35;1.95;;;14.60;90.10;;;;;;6254988;22;20066;-81
2021/08/11 02:54:42;;;;;;;5.63;2.10;;;14.50;90.20;;;;;;6278915;22;20267;-81
2021/08/11 02:57:11;;;;;;;5.43;1.80;;;14.50;90.10;;;;;;6253608;23;20016;-81
2021/08/11 02:59:41;;;;;;;4.60;2.22;;;14.40;90.10;;;;;;6253681;23;20040;-81
2021/08/11 03:02:11;;;;;;;5.55;1.98;;;14.40;90.30;;;;;;6247515;23;20028;-82
2021/08/11 03:04:39;;;;;;;3.60;1.77;;;14.40;90.30;;;;;;6254851;22;20330;-82
2021/08/11 03:07:07;;;;;;;4.53;1.90;;;14.30;90.40;;;;;;6253691;23;20238;-82
2021/08/11 03:09:37;;;;;;;4.45;2.03;;;14.20;90.10;;;;;;6280383;22;20234;-81
2021/08/11 03:12:14;;;;;;;4.78;1.88;;;14.20;90.10;;;;;;6252437;23;20211;-82
2021/08/11 03:14:44;;;;;;;4.75;1.80;;;14.20;90.10;;;;;;6254308;23;20051;-81
2021/08/11 03:17:12;;;;;;;5.18;1.88;;;14.30;89.90;;;;;;6278692;22;20016;-81
2021/08/11 03:19:41;;;;;;;4.22;1.73;;;14.20;89.90;;;;;;6254596;23;20067;-81
2021/08/11 03:22:10;;;;;;;3.08;1.52;;;14.20;90.00;;;;;;6254496;23;20016;-81
2021/08/11 03:24:40;;;;;;;6.13;2.00;;;14.20;89.90;;;;;;6253068;23;20038;-81
2021/08/11 03:27:07;;;;;;;3.65;1.77;;;14.10;90.10;;;;;;6252024;22;20262;-80
2021/08/11 03:29:35;;;;;;;5.15;1.85;;;14.10;90.10;;;;;;6253150;22;20012;-81
2021/08/11 03:32:03;;;;;;;5.43;1.88;;;14.10;90.10;;;;;;6278902;22;20047;-80
2021/08/11 03:34:31;;;;;;;5.55;3.05;;;14.00;90.20;;;;;;6278408;22;20020;-81
2021/08/11 03:36:59;;;;;;;6.32;2.20;;;14.10;90.30;;;;;;6252205;23;20024;-81
2021/08/11 03:39:27;;;;;;;5.22;1.73;;;14.10;89.90;;;;;;6253394;22;20015;-81
2021/08/11 03:41:58;;;;;;;4.07;1.70;;;14.10;89.60;;;;;;6253552;22;20050;-82
2021/08/11 03:44:25;;;;;;;6.00;2.08;;;14.10;89.50;;;;;;6276402;22;20641;-81
2021/08/11 03:46:53;;;;;;;3.65;1.67;;;14.00;89.50;;;;;;6252549;23;20075;-82
2021/08/11 03:49:20;;;;;;;4.85;2.33;;;14.00;89.50;;;;;;6251496;23;20027;-82
2021/08/11 03:51:49;;;;;;;5.32;2.15;;;13.90;89.50;;;;;;6252631;22;20024;-81
2021/08/11 03:54:16;;;;;;;6.32;2.15;;;13.90;89.70;;;;;;6251993;23;20088;-81
2021/08/11 03:56:44;;;;;;;12.32;2.83;;;13.80;90.00;;;;;;6249961;23;20341;-81
2021/08/11 03:59:16;;;;;;;6.13;2.38;;;13.90;90.10;;;;;;6255031;23;20024;-81
2021/08/11 04:01:46;;;;;;;5.60;1.70;;;13.90;90.10;;;;;;6248973;22;20094;-81
2021/08/11 04:04:13;;;;;;;4.88;1.98;;;13.90;90.00;;;;;;6252204;22;20377;-80
2021/08/11 04:06:40;;;;;;;7.47;2.45;;;13.90;90.00;;;;;;6254284;22;20024;-81
2021/08/11 04:09:07;;;;;;;9.10;2.70;;;14.00;89.90;;;;;;6255042;23;20032;-80
2021/08/11 04:11:34;;;;;;;4.43;1.77;;;14.10;89.80;;;;;;6252793;22;20024;-80
2021/08/11 04:14:02;;;;;;;4.22;1.98;;;14.10;89.50;;;;;;6255009;23;20370;-80
2021/08/11 04:16:30;;;;;;;6.88;2.75;;;14.00;89.60;;;;;;6255738;23;20070;-81
2021/08/11 04:18:58;;;;;;;4.97;2.10;;;14.00;89.70;;;;;;6254833;23;20024;-81
2021/08/11 04:21:25;;;;;;;4.45;1.90;;;13.90;89.90;;;;;;6255902;23;20254;-81
2021/08/11 04:23:52;;;;;;;10.00;1.98;;;13.90;89.80;;;;;;6256984;23;20032;-81
2021/08/11 04:26:19;;;;;;;5.30;2.17;;;13.90;89.90;;;;;;6256466;23;20095;-80
2021/08/11 04:28:48;;;;;;;10.18;2.83;;;13.90;89.70;;;;;;6254608;23;20028;-79
2021/08/11 04:31:15;;;;;;;6.15;2.10;;;13.80;90.00;;;;;;6255197;22;20032;-78
2021/08/11 04:33:44;;;;;;;4.65;2.45;;;13.80;90.00;;;;;;6255374;23;20028;-80
2021/08/11 04:36:11;;;;;;;4.88;2.10;;;13.90;90.00;;;;;;6256738;23;20024;-80
2021/08/11 04:38:38;;;;;;;4.65;1.60;;;13.90;90.10;;;;;;6257480;23;20020;-80
2021/08/11 04:41:06;;;;;;;6.63;2.10;;;14.00;90.00;;;;;;6257597;23;20063;-80
2021/08/11 04:43:33;;;;;;;5.13;2.08;;;14.00;89.90;;;;;;6255797;22;20031;-80
2021/08/11 04:46:00;;;;;;;5.95;2.30;;;14.00;89.70;;;;;;6254611;23;20099;-80
2021/08/11 04:48:33;;;;;;;5.28;1.90;;;14.10;89.30;;;;;;6257128;23;20027;-80
2021/08/11 04:51:01;;;;;;;5.72;2.35;;;14.00;89.00;;;;;;6258175;22;20016;-81
2021/08/11 04:53:30;;;;;;;4.22;2.00;;;14.10;89.10;;;;;;6250483;23;20032;-81
2021/08/11 04:55:58;;;;;;;11.45;4.85;;;14.20;89.10;;;;;;6253007;23;20032;-80
2021/08/11 04:58:25;;;;;;;6.65;2.97;;;14.30;89.10;;;;;;6253924;23;20044;-79
2021/08/11 05:00:52;;;;;;;6.22;2.40;;;14.40;88.90;;;;;;6247326;23;20079;-80
2021/08/11 05:03:19;;;;;;;6.05;2.60;;;14.50;88.70;;;;;;6253110;23;20036;-79
2021/08/11 05:05:47;;;;;;;6.03;2.47;;;14.50;88.60;;;;;;6254014;23;20401;-80
2021/08/11 05:08:15;;;;;;;7.60;2.05;;;14.60;88.50;;;;;;6252103;23;20020;-80
2021/08/11 05:10:43;;;;;;;4.60;2.00;;;14.50;87.90;;;;;;6253027;23;20059;-80
2021/08/11 05:13:10;;;;;;;5.38;2.47;;;14.30;87.70;;;;;;6253514;23;20044;-80
2021/08/11 05:15:37;;;;;;;5.88;1.85;;;14.20;88.00;;;;;;6254432;22;20032;-80
2021/08/11 05:18:04;;;;;;;8.93;2.20;;;14.20;88.10;;;;;;6253858;23;20152;-80
2021/08/11 05:20:32;;;;;;;5.03;1.98;;;14.20;88.40;;;;;;6253515;23;20032;-80
2021/08/11 05:22:59;;;;;;;4.95;1.50;;;14.30;88.40;;;;;;6252882;23;20088;-80
2021/08/11 05:25:28;;;;;;;5.90;1.80;;;14.30;88.10;;;;;;6252331;23;20074;-80
2021/08/11 05:27:55;;;;;;;7.07;3.25;;;14.30;88.20;;;;;;6251612;23;20267;-80
2021/08/11 05:30:22;;;;;;;7.13;3.22;;;14.40;89.20;;;;;;6254417;23;20115;-80
2021/08/11 05:32:49;;;;;;;8.23;3.17;;;14.50;89.20;;;;;;6253260;23;20023;-80
2021/08/11 05:35:16;;;;;;;6.78;2.92;;;14.60;89.10;;;;;;6252082;23;20135;-79
2021/08/11 05:37:44;;;;;;;5.93;2.92;;;14.70;88.80;;;;;;6251677;23;20056;-80
2021/08/11 05:40:12;;;;;;;5.60;2.53;;;14.70;88.80;;;;;;6253439;23;20056;-80
2021/08/11 05:42:44;;;;;;;6.88;2.83;;;14.70;88.80;;;;;;6252849;22;20032;-80
2021/08/11 05:45:12;;;;;;;6.47;2.25;;;14.80;88.60;;;;;;6255200;23;20032;-82
2021/08/11 05:47:39;;;;;;;6.22;2.40;;;14.80;88.30;;;;;;6253765;23;20052;-81
2021/08/11 05:50:08;;;;;;;5.05;2.45;;;14.90;87.90;;;;;;6252218;23;20036;-80
2021/08/11 05:52:36;;;;;;;6.97;2.88;;;14.90;88.10;;;;;;6250684;22;20024;-79
2021/08/11 05:55:04;;;;;;;7.20;2.83;;;14.90;88.00;;;;;;6252981;23;20012;-79
2021/08/11 05:57:32;;;;;;;5.95;2.65;;;15.10;87.80;;;;;;6252278;23;20028;-80
2021/08/11 06:00:01;;;;;;;5.40;2.70;;;15.10;87.40;;;;;;6252951;23;20091;-79
2021/08/11 06:02:32;;;;;;;6.57;2.42;;;15.10;87.30;;;;;;6252533;23;20043;-80
2021/08/11 06:05:14;;;;;;;8.15;2.60;;;15.20;87.10;;;;;;6251168;23;20020;-80
2021/08/11 06:07:41;;;;;;;6.55;2.53;;;15.20;86.90;;;;;;6250302;23;20028;-79
2021/08/11 06:10:10;;;;;;;7.32;2.50;;;15.20;86.90;;;;;;6252516;22;20054;-80
2021/08/11 06:12:37;;;;;;;4.68;2.42;;;15.30;86.80;;;;;;6252407;23;20062;-80
2021/08/11 06:15:07;;;;;;;10.75;2.78;;;15.40;86.90;;;;;;6254164;22;20036;-80
2021/08/11 06:17:44;;;;;;;7.93;2.45;;;15.50;86.50;;;;;;6255350;22;20020;-80
2021/08/11 06:20:13;;;;;;;6.68;2.08;;;15.60;86.60;;;;;;6253963;23;20022;-80
2021/08/11 06:22:41;;;;;;;8.80;2.63;;;15.60;86.00;;;;;;6253573;22;20050;-79
2021/08/11 06:25:10;;;;;;;7.80;2.40;;;15.70;86.10;;;;;;6256125;23;20031;-80
2021/08/11 06:27:37;;;;;;;5.30;2.35;;;15.80;86.10;;;;;;6252657;22;20086;-80
2021/08/11 06:30:08;;;;;;;7.00;2.70;;;15.90;85.70;;;;;;6253626;23;20020;-80
2021/08/11 06:32:35;;;;;;;5.68;2.28;;;15.90;85.70;;;;;;6254027;23;20399;-80
2021/08/11 06:35:04;;;;;;;6.85;2.88;;;16.00;85.50;;;;;;6278583;22;20083;-80
2021/08/11 06:37:31;;;;;;;5.45;2.33;;;16.10;85.30;;;;;;6252181;23;20036;-81
2021/08/11 06:39:59;;;;;;;4.82;2.17;;;16.20;85.40;;;;;;6278320;22;20066;-80
2021/08/11 06:42:26;;;;;;;6.10;2.55;;;16.30;85.10;;;;;;6252180;22;20071;-81
2021/08/11 06:44:59;;;;;;;6.53;2.80;;;16.40;84.80;;;;;;6252364;23;20020;-80
2021/08/11 06:47:28;;;;;;;6.75;2.45;;;16.50;84.80;;;;;;6277095;22;20035;-79
2021/08/11 06:49:55;;;;;;;5.25;2.20;;;16.50;84.50;;;;;;6253722;23;20019;-80
2021/08/11 06:52:23;;;;;;;13.25;2.72;;;16.50;84.40;;;;;;6248584;23;20310;-80
2021/08/11 06:54:50;;;;;;;6.22;2.65;;;16.60;84.50;;;;;;6252318;23;20027;-80
2021/08/11 06:57:18;;;;;;;5.72;2.65;;;16.70;84.40;;;;;;6250515;22;20024;-80
2021/08/11 06:59:45;;;;;;;5.20;2.58;;;16.80;84.20;;;;;;6252204;23;20024;-80
2021/08/11 07:02:13;;;;;;;6.40;2.40;;;16.90;84.10;;;;;;6246357;23;20087;-80
2021/08/11 07:04:42;;;;;;;6.57;2.30;;;17.10;83.70;;;;;;6252742;22;20022;-81
2021/08/11 07:07:09;;;;;;;6.77;2.20;;;17.20;83.40;;;;;;6251007;23;20115;-80
2021/08/11 07:09:37;;;;;;;6.60;2.80;;;17.20;83.10;;;;;;6223657;23;20489;-80
2021/08/11 07:12:05;;;;;;;6.30;2.58;;;17.40;83.20;;;;;;6251654;22;20028;-79
2021/08/11 07:14:34;;;;;;;5.32;3.00;;;17.50;82.60;;;;;;6251267;23;20020;-80
2021/08/11 07:17:01;;;;;;;7.07;2.72;;;17.70;82.60;;;;;;6254563;22;20394;-79
2021/08/11 07:19:29;;;;;;;5.82;2.80;;;17.90;82.10;;;;;;6254377;23;20028;-79
2021/08/11 07:21:58;;;;;;;5.60;2.20;;;17.90;81.60;;;;;;6252455;23;20070;-80
2021/08/11 07:24:25;;;;;;;5.82;2.67;;;18.10;81.60;;;;;;6251197;23;20087;-79
2021/08/11 07:26:53;;;;;;;8.38;3.05;;;18.20;81.30;;;;;;6250829;23;20062;-80
2021/08/11 07:29:20;;;;;;;6.93;2.75;;;18.20;80.60;;;;;;6252816;22;20028;-80
2021/08/11 07:31:47;;;;;;;4.85;2.38;;;18.40;80.80;;;;;;6254437;22;20020;-79
2021/08/11 07:34:15;;;;;;;5.25;2.00;;;18.40;80.50;;;;;;6254778;23;20024;-79
2021/08/11 07:36:42;;;;;;;6.25;2.33;;;18.60;80.70;;;;;;6252352;23;20031;-79
2021/08/11 07:39:11;;;;;;;5.20;2.45;;;18.60;80.00;;;;;;6252422;23;20095;-80
2021/08/11 07:41:38;;;;;;;6.25;2.47;;;18.70;80.10;;;;;;6253558;23;20091;-79
2021/08/11 07:44:06;;;;;;;4.93;2.42;;;18.70;79.50;;;;;;6279527;22;20028;-79
2021/08/11 07:46:34;;;;;;;6.28;2.45;;;18.90;79.50;;;;;;6254531;23;20027;-82
2021/08/11 07:49:01;;;;;;;8.02;3.03;;;19.00;79.30;;;;;;6256260;23;20012;-81
2021/08/11 07:51:29;;;;;;;7.30;2.53;;;19.00;78.90;;;;;;6254201;23;20051;-81
2021/08/11 07:53:56;;;;;;;8.45;3.30;;;19.10;78.60;;;;;;6281922;22;20083;-81
2021/08/11 07:56:25;;;;;;;3.92;2.25;;;19.30;78.40;;;;;;6275800;22;20020;-81
2021/08/11 07:58:52;;;;;;;5.18;2.40;;;19.40;77.90;;;;;;6253648;23;20070;-81
2021/08/11 08:01:20;;;;;;;6.60;1.92;;;19.60;77.80;;;;;;6248709;22;20028;-79
2021/08/11 08:03:48;;;;;;;6.32;2.03;;;19.60;77.30;;;;;;6251886;23;20026;-79
2021/08/11 08:06:16;;;;;;;4.10;1.92;;;19.80;76.80;;;;;;6253830;23;20393;-80
2021/08/11 08:09:07;;;;;;;6.82;2.63;;;19.90;76.70;;;;;;6257897;23;20013;-80
2021/08/11 08:11:42;;;;;;;4.95;2.50;;;20.00;76.80;;;;;;6253952;22;20048;-79
2021/08/11 08:14:09;;;;;;;5.00;2.30;;;20.20;75.60;;;;;;6256231;22;20191;-80
2021/08/11 08:16:37;;;;;;;4.90;2.55;;;20.30;75.30;;;;;;6255425;22;20070;-79
2021/08/11 08:19:04;;;;;;;6.25;2.38;;;20.30;75.00;;;;;;6254876;23;20016;-79
2021/08/11 08:21:32;;;;;;;3.92;1.70;;;20.30;74.90;;;;;;6255053;23;20034;-80
2021/08/11 08:24:00;;;;;;;5.55;1.90;;;20.40;75.30;;;;;;6254514;22;20032;-79
2021/08/11 08:26:28;;;;;;;4.18;1.95;;;20.60;74.40;;;;;;6253664;23;20016;-78
2021/08/11 08:28:57;;;;;;;3.63;1.80;;;20.70;73.80;;;;;;6253300;23;20075;-79
2021/08/11 08:31:24;;;;;;;5.72;1.90;;;20.70;73.90;;;;;;6257713;22;20236;-79
2021/08/11 08:33:51;;;;;;;3.95;1.88;;;20.70;73.90;;;;;;6256115;23;20028;-78
2021/08/11 08:36:18;;;;;;;4.85;1.67;;;20.80;73.80;;;;;;6253509;23;20055;-80
2021/08/11 08:38:46;;;;;;;6.22;1.90;;;21.00;73.40;;;;;;6253201;23;20258;-78
2021/08/11 08:41:13;;;;;;;4.45;2.13;;;21.10;73.10;;;;;;6278823;22;20020;-78
2021/08/11 08:43:41;;;;;;;4.70;1.77;;;21.10;72.60;;;;;;6256529;22;20067;-79
2021/08/11 08:46:11;;;;;;;7.03;2.13;;;21.20;71.90;;;;;;6254129;23;20044;-79
2021/08/11 08:48:40;;;;;;;10.55;1.80;;;21.40;71.10;;;;;;6254408;22;20031;-79
2021/08/11 08:51:13;;;;;;;5.03;1.80;;;21.30;70.50;;;;;;6258125;23;20016;-78
2021/08/11 08:53:41;;;;;;;7.05;2.15;;;21.40;70.60;;;;;;6254067;23;20091;-79
2021/08/11 08:56:09;;;;;;;4.50;2.10;;;21.50;70.30;;;;;;6253474;23;20016;-79
2021/08/11 08:58:39;;;;;;;5.38;1.77;;;21.80;70.20;;;;;;6250058;23;20274;-77
2021/08/11 09:01:06;;;;;;;4.97;1.80;;;21.90;68.70;;;;;;6250597;22;20024;-78
2021/08/11 09:03:35;;;;;;;3.70;1.38;;;22.10;68.40;;;;;;6253519;23;20054;-79
2021/08/11 09:06:03;;;;;;;3.22;1.45;;;22.10;66.80;;;;;;6253296;23;20062;-79
2021/08/11 09:08:30;;;;;;;3.58;2.22;;;22.20;65.40;;;;;;6251776;23;20039;-78
2021/08/11 09:10:57;;;;;;;6.13;1.90;;;22.40;65.20;;;;;;6251798;23;20028;-78
2021/08/11 09:13:26;;;;;;;4.95;1.75;;;22.40;65.20;;;;;;6251004;23;20042;-78
2021/08/11 09:15:54;;;;;;;4.10;1.85;;;22.50;66.30;;;;;;6252660;23;20040;-78
2021/08/11 09:18:24;;;;;;;3.67;1.67;;;22.60;66.00;;;;;;6252567;23;20026;-78
2021/08/11 09:21:11;;;;;;;3.30;1.50;;;23.00;64.90;;;;;;6255610;22;20032;-78
2021/08/11 09:23:40;;;;;;;3.92;1.92;;;23.00;64.10;;;;;;6256604;23;20042;-80
2021/08/11 09:26:10;;;;;;;3.83;1.70;;;23.20;63.60;;;;;;6256267;22;20388;-78
2021/08/11 09:28:45;;;;;;;2.85;1.33;;;23.30;62.70;;;;;;6259517;23;20016;-81
2021/08/11 09:31:22;;;;;;;5.85;1.48;;;23.50;62.70;;;;;;6258305;23;20031;-79
2021/08/11 09:33:51;;;;;;;5.63;2.00;;;23.80;61.00;;;;;;6256167;22;20028;-79
2021/08/11 09:36:20;;;;;;;4.15;1.70;;;24.10;60.60;;;;;;6256053;23;20016;-79
2021/08/11 09:38:58;;;;;;;4.53;1.73;;;24.00;60.20;;;;;;6254829;23;20070;-79
2021/08/11 09:41:26;;;;;;;3.40;1.58;;;24.20;59.80;;;;;;6257108;22;20384;-79
2021/08/11 09:44:05;;;;;;;3.60;1.92;;;24.00;59.10;;;;;;6254300;22;20016;-79
2021/08/11 09:46:35;;;;;;;3.75;1.60;;;24.10;58.70;;;;;;6256540;23;20027;-79
2021/08/11 09:49:05;;;;;;;3.70;1.35;;;24.10;58.30;;;;;;6256511;23;20024;-80
2021/08/11 09:51:44;;;;;;;4.32;1.60;;;24.10;58.70;;;;;;6257812;23;20016;-79
2021/08/11 09:54:12;;;;;;;3.53;1.48;;;24.40;59.10;;;;;;6264032;23;20067;-79
2021/08/11 09:56:42;;;;;;;3.65;1.30;;;24.40;57.00;;;;;;6257857;22;20214;-79
2021/08/11 09:59:10;;;;;;;3.90;1.90;;;24.40;56.50;;;;;;6228157;23;20080;-80
2021/08/11 10:01:37;;;;;;;4.82;1.23;;;24.70;56.60;;;;;;6249921;22;20043;-80
2021/08/11 10:04:06;;;;;;;5.75;1.42;;;25.20;54.40;;;;;;6254527;23;20020;-80
2021/08/11 10:06:40;;;;;;;5.25;1.73;;;25.10;54.00;;;;;;6254311;23;20044;-79
2021/08/11 10:09:16;;;;;;;4.40;1.65;;;25.50;53.80;;;;;;6254515;23;20012;-80
2021/08/11 10:11:47;;;;;;;2.78;1.35;;;26.20;52.30;;;;;;6254230;23;20067;-80
2021/08/11 10:14:15;;;;;;;4.07;1.20;;;26.60;50.00;;;;;;6251581;23;20075;-80
2021/08/11 10:16:45;;;;;;;3.45;1.30;;;27.40;48.90;;;;;;6257560;23;20020;-80
2021/08/11 10:19:13;;;;;;;3.15;1.60;;;27.70;46.30;;;;;;6255037;23;20322;-80
2021/08/11 10:21:47;;;;;;;3.17;1.17;;;28.40;44.90;;;;;;6252995;23;20311;-79
2021/08/11 10:24:15;;;;;;;3.72;1.50;;;29.00;44.30;;;;;;6253923;23;20016;-81
2021/08/11 10:26:43;;;;;;;3.20;1.13;;;29.60;42.60;;;;;;6251566;22;20365;-81
2021/08/11 10:29:11;;;;;;;2.97;1.30;;;30.50;41.30;;;;;;6253939;23;20214;-80
2021/08/11 10:31:38;;;;;;;3.55;1.20;;;30.80;39.70;;;;;;6254520;23;20042;-81
2021/08/11 10:34:06;;;;;;;2.53;1.00;;;30.00;38.90;;;;;;6255735;22;20334;-79
2021/08/11 10:36:33;;;;;;;3.35;1.27;;;30.60;38.10;;;;;;6258145;22;20066;-79
2021/08/11 10:39:02;;;;;;;2.85;1.27;;;31.90;36.10;;;;;;6255391;22;20026;-80
2021/08/11 10:41:31;;;;;;;3.65;1.05;;;30.90;38.20;;;;;;6251987;23;20070;-80
2021/08/11 10:44:00;;;;;;;3.15;1.40;;;30.80;38.30;;;;;;6254827;22;20024;-80
2021/08/11 10:46:35;;;;;;;3.22;1.30;;;31.80;36.20;;;;;;6255815;23;20032;-79
2021/08/11 10:49:03;;;;;;;2.92;1.40;;;32.20;35.50;;;;;;6259553;22;20016;-80
2021/08/11 10:51:38;;;;;;;3.10;1.00;;;31.70;36.20;;;;;;6252094;22;20008;-80
2021/08/11 10:54:08;;;;;;;2.53;1.13;;;31.80;36.80;;;;;;6255465;22;20020;-79
2021/08/11 10:56:46;;;;;;;2.35;1.10;;;32.60;34.70;;;;;;6255588;23;20030;-78
2021/08/11 10:59:46;;;;;;;3.05;0.85;;;34.40;31.20;;;;;;6252548;23;20446;-80
2021/08/11 11:02:55;;;;;;;2.80;1.25;;;34.40;31.30;;;;;;6243526;22;20050;-79
2021/08/11 11:06:00;;;;;;;3.95;1.55;;;36.20;29.50;;;;;;6281699;22;20311;-79
2021/08/11 11:08:39;;;;;;;3.55;1.50;;;36.10;28.60;;;;;;6256417;22;20046;-79
2021/08/11 11:11:38;;;;;;;2.63;1.08;;;36.70;27.90;;;;;;6254895;23;20020;-78
2021/08/11 11:14:07;;;;;;;3.33;1.30;;;37.50;27.50;;;;;;6255939;22;20374;-79
2021/08/11 11:17:12;;;;;;;2.53;1.17;;;38.20;27.00;;;;;;6255364;23;20054;-78
2021/08/11 11:20:31;;;;;;;2.78;1.30;;;38.40;26.50;;;;;;6256168;22;20024;-78
2021/08/11 11:23:07;;;;;;;1.95;1.13;;;38.30;26.50;;;;;;6190590;23;20047;-78
2021/08/11 11:26:06;;;;;;;2.13;1.08;;;37.50;27.30;;;;;;6255452;22;20303;-78
2021/08/11 11:28:57;;;;;;;1.92;0.98;;;38.00;26.50;;;;;;6252684;23;20079;-79
2021/08/11 11:31:47;;;;;;;3.28;1.38;;;36.50;28.50;;;;;;6258040;23;20020;-78
2021/08/11 11:34:32;;;;;;;3.25;1.17;;;34.80;30.80;;;;;;6255551;23;20314;-78
2021/08/11 11:37:20;;;;;;;2.33;1.17;;;33.20;32.90;;;;;;6256073;23;20092;-78
2021/08/11 11:40:08;;;;;;;2.37;1.30;;;33.90;32.00;;;;;;6255005;23;20024;-78
2021/08/11 11:42:36;;;;;;;2.60;1.10;;;34.90;29.90;;;;;;6254735;22;20431;-78
2021/08/11 11:45:07;;;;;;;2.88;1.20;;;35.00;30.60;;;;;;6254628;23;20175;-77
2021/08/11 11:48:22;;;;;;;2.58;1.25;;;35.20;30.00;;;;;;6256921;23;20020;-78
2021/08/11 11:50:50;;;;;;;2.67;1.20;;;34.50;30.70;;;;;;6255245;23;20164;-79
2021/08/11 11:53:28;;;;;;;3.95;1.27;;;34.50;30.60;;;;;;6256889;22;20016;-79
2021/08/11 11:55:56;;;;;;;3.33;1.25;;;34.20;30.90;;;;;;6255045;23;20043;-79
2021/08/11 11:58:25;;;;;;;3.67;1.17;;;34.10;31.30;;;;;;6258886;23;20319;-77
2021/08/11 12:01:02;;;;;;;4.25;1.25;;;33.80;31.80;;;;;;6254242;22;20012;-76
2021/08/11 12:03:35;;;;;;;2.40;1.10;;;32.80;32.40;;;;;;6256386;23;20304;-77
2021/08/11 12:06:03;;;;;;;4.43;1.40;;;32.70;34.20;;;;;;6254828;23;20074;-79
2021/08/11 12:08:31;;;;;;;2.63;1.20;;;32.70;33.70;;;;;;6253815;23;20012;-79
2021/08/11 12:11:08;;;;;;;3.93;1.40;;;32.80;32.90;;;;;;6254640;23;20019;-79
2021/08/11 12:13:46;;;;;;;3.72;1.52;;;33.00;33.40;;;;;;6253197;23;20861;-79
2021/08/11 12:16:17;;;;;;;3.03;1.50;;;30.80;36.00;;;;;;6253379;22;20192;-79
2021/08/11 12:18:47;;;;;;;2.53;1.10;;;30.30;36.40;;;;;;6254825;23;20028;-80
2021/08/11 12:21:16;;;;;;;2.83;1.13;;;30.30;36.60;;;;;;6255706;23;20051;-79
2021/08/11 12:23:43;;;;;;;;;;;29.60;38.10;;;;;;6256721;22;20083;-80
2021/08/11 12:26:14;;;;;;;3.47;1.30;;;30.00;37.30;;;;;;6253108;23;19922;-79
2021/08/11 12:28:48;;;;;;;2.65;1.00;;;30.00;37.40;;;;;;6253988;23;20028;-80
2021/08/11 12:31:20;;;;;;;2.38;1.30;;;29.00;39.60;;;;;;6255361;23;20024;-81
2021/08/11 12:33:48;;;;;;;2.67;1.23;;;28.40;40.80;;;;;;6255743;22;20367;-80
2021/08/11 12:36:20;;;;;;;11.80;1.52;;;28.30;42.10;;;;;;6256610;22;20491;-79
2021/08/11 12:39:00;;;;;;;3.22;1.67;;;28.30;42.40;;;;;;6255886;23;20299;-79
2021/08/11 12:41:30;;;;;;;3.85;1.40;;;28.20;41.80;;;;;;6253628;23;20199;-80
2021/08/11 12:43:58;;;;;;;;;;;28.20;42.10;;;;;;6258270;22;20042;-79
2021/08/11 12:46:56;;;;;;;2.95;1.20;;;29.70;39.80;;;;;;6255541;23;19953;-78
2021/08/11 12:49:25;;;;;;;3.38;1.40;;;32.60;35.30;;;;;;6248636;23;20054;-79
2021/08/11 12:52:13;;;;;;;3.45;1.50;;;35.40;30.80;;;;;;6254071;23;20016;-78
2021/08/11 12:54:55;;;;;;;2.30;1.00;;;36.90;28.00;;;;;;6277555;22;20596;-79
2021/08/11 12:57:22;;;;;;;3.30;1.35;;;38.30;27.10;;;;;;6254564;23;20024;-77
2021/08/11 12:59:51;;;;;;;3.35;1.15;;;39.40;25.10;;;;;;6253064;23;20008;-78
2021/08/11 13:02:27;;;;;;;2.10;1.15;;;39.90;24.00;;;;;;6250545;22;20070;-78
2021/08/11 13:05:07;;;;;;;2.92;1.20;;;39.50;24.20;;;;;;6255061;23;20024;-77
2021/08/11 13:07:34;;;;;;;2.88;1.40;;;40.30;23.00;;;;;;6253428;23;20034;-77